createdAt,value
2022-08-16T00:15:54.099Z,0
2022-08-16T00:35:54.352Z,0
2022-08-16T00:45:55.515Z,0
2022-08-16T00:55:55.060Z,0
2022-08-16T01:05:55.414Z,0
2022-08-16T01:15:55.530Z,0
2022-08-16T01:25:59.982Z,0
2022-08-16T01:35:56.875Z,0
2022-08-16T01:45:57.469Z,0
2022-08-16T01:55:58.008Z,0
2022-08-16T02:05:58.049Z,0
2022-08-16T02:15:58.966Z,0
2022-08-16T02:25:59.914Z,0
2022-08-16T02:36:00.289Z,0
2022-08-16T02:46:00.497Z,0
2022-08-16T02:56:01.044Z,0
2022-08-16T03:16:02.262Z,0
2022-08-16T03:26:02.959Z,0
2022-08-16T03:36:20.153Z,0
2022-08-16T03:46:04.317Z,0
2022-08-16T03:56:05.161Z,0
2022-08-16T04:16:06.751Z,0
2022-08-16T04:26:07.448Z,0
2022-08-16T04:36:08.433Z,0
2022-08-16T04:56:11.240Z,0
2022-08-16T05:26:19.702Z,0
2022-08-16T05:36:14.362Z,0
2022-08-16T05:46:29.120Z,0
2022-08-16T05:56:13.089Z,0
2022-08-16T06:16:17.921Z,0
2022-08-16T06:26:14.865Z,0
2022-08-16T06:36:15.253Z,0
2022-08-16T06:46:15.611Z,0
2022-08-16T06:56:23.271Z,0
2022-08-16T07:06:26.365Z,0
2022-08-16T07:16:16.071Z,0
2022-08-16T07:26:24.992Z,0
2022-08-16T07:46:36.864Z,0
2022-08-16T07:56:17.397Z,0
2022-08-16T08:06:17.587Z,0
2022-08-16T08:16:18.746Z,0
2022-08-16T08:26:18.634Z,0
2022-08-16T08:46:21.127Z,0
2022-08-16T08:56:22.737Z,0
2022-08-16T09:06:21.386Z,0
2022-08-16T09:16:57.625Z,16
2022-08-16T09:26:44.035Z,35
2022-08-16T09:36:32.513Z,47
2022-08-16T09:46:33.653Z,54
2022-08-16T10:06:26.057Z,77
2022-08-16T10:16:26.660Z,82
2022-08-16T10:26:59.808Z,83
2022-08-16T10:36:37.756Z,84
2022-08-16T10:46:34.108Z,81
2022-08-16T10:56:53.035Z,82
2022-08-16T11:06:29.616Z,80
2022-08-16T11:26:31.143Z,75
2022-08-16T11:36:31.493Z,74
2022-08-16T11:46:43.973Z,74
2022-08-16T11:56:39.987Z,72
2022-08-16T12:06:33.758Z,71
2022-08-16T12:16:34.769Z,70
2022-08-16T12:26:34.637Z,69
2022-08-16T12:36:34.732Z,70
2022-08-16T12:56:35.877Z,68
2022-08-16T13:06:36.430Z,69
2022-08-16T13:16:36.564Z,68
2022-08-16T13:26:37.529Z,67
2022-08-16T13:36:48.292Z,67
2022-08-16T13:46:38.692Z,66
2022-08-16T13:56:39.604Z,65
2022-08-16T14:06:39.900Z,68
2022-08-16T14:16:39.971Z,66
2022-08-16T14:36:42.191Z,69
2022-08-16T14:46:41.508Z,70
2022-08-16T14:56:43.160Z,69
2022-08-16T15:06:42.266Z,70
2022-08-16T15:16:43.356Z,70
2022-08-16T15:26:45.037Z,69
2022-08-16T15:46:54.505Z,70
2022-08-16T15:56:46.183Z,70
2022-08-16T16:16:48.010Z,70
2022-08-16T16:26:48.824Z,70
2022-08-16T16:36:49.279Z,71
2022-08-16T16:46:56.444Z,71
2022-08-16T16:56:50.430Z,72
2022-08-16T17:06:53.304Z,73
2022-08-16T17:16:52.005Z,74
2022-08-16T17:26:55.982Z,74
2022-08-16T17:36:52.947Z,74
2022-08-16T17:46:53.244Z,72
2022-08-16T17:56:53.637Z,76
2022-08-16T18:06:53.763Z,77
2022-08-16T18:26:54.414Z,84
2022-08-16T18:36:55.355Z,89
2022-08-16T18:46:55.554Z,92
2022-08-16T18:56:57.656Z,93
2022-08-16T19:06:56.706Z,92
2022-08-16T19:26:57.786Z,81
2022-08-16T19:46:58.768Z,66
2022-08-16T19:56:59.559Z,55
2022-08-16T20:07:00.437Z,35
2022-08-16T20:27:01.179Z,4
2022-08-16T20:37:01.504Z,9
2022-08-16T20:47:01.763Z,2
2022-08-16T20:57:01.837Z,4
2022-08-16T21:07:02.675Z,0
2022-08-16T21:27:03.646Z,3
2022-08-16T21:37:04.463Z,0
2022-08-16T21:47:05.198Z,0
2022-08-16T21:57:08.757Z,0
2022-08-16T22:07:06.548Z,0
2022-08-16T22:17:07.464Z,10
2022-08-16T22:27:07.860Z,66
2022-08-16T22:37:08.778Z,73
2022-08-16T22:47:09.749Z,73
2022-08-16T22:57:10.044Z,72
2022-08-16T23:07:10.711Z,71
2022-08-16T23:27:11.704Z,68
2022-08-16T23:37:12.528Z,66
2022-08-16T23:37:18.059Z,66
2022-08-16T23:47:18.542Z,69
2022-08-16T23:57:18.658Z,71
